Time;durP1;ratioP1;P1;durP2;ratioP2;P2;SDS_P1;SDS_P2;PMS_P1;PMS_P2;Temp;Humidity;BMP_temperature;BMP_pressure;BME280_temperature;BME280_humidity;BME280_pressure;Samples;Min_cycle;Max_cycle;Signal;HPM_P1;HPM_P2
2022/05/15 00:01:54;;;;;;;16.98;5.70;;;8.30;99.90;;;;;;5093364;28;20044;-72
2022/05/15 00:04:20;;;;;;;13.93;5.45;;;8.30;99.90;;;;;;5093473;28;20495;-73
2022/05/15 00:06:45;;;;;;;16.42;5.47;;;8.30;99.90;;;;;;5075360;28;20057;-73
2022/05/15 00:09:11;;;;;;;14.80;4.13;;;8.20;99.90;;;;;;5093352;28;20044;-72
2022/05/15 00:11:36;;;;;;;17.25;5.28;;;8.40;99.90;;;;;;5093560;28;20047;-73
2022/05/15 00:14:02;;;;;;;18.13;5.28;;;8.20;99.90;;;;;;5093327;28;20040;-72
2022/05/15 00:16:31;;;;;;;17.23;5.90;;;8.40;99.90;;;;;;5074680;28;20059;-72
2022/05/15 00:18:57;;;;;;;23.38;6.63;;;8.20;99.90;;;;;;5093088;28;20554;-73
2022/05/15 00:21:23;;;;;;;18.75;5.90;;;8.30;99.90;;;;;;5093243;28;20067;-72
2022/05/15 00:23:49;;;;;;;19.70;5.63;;;8.20;99.90;;;;;;5093112;28;20037;-74
2022/05/15 00:26:15;;;;;;;24.17;6.18;;;8.30;99.90;;;;;;5075000;28;20639;-72
2022/05/15 00:28:41;;;;;;;24.13;6.40;;;8.20;99.90;;;;;;5074399;28;20056;-73
2022/05/15 00:31:07;;;;;;;20.23;6.45;;;8.20;99.90;;;;;;5093152;28;20048;-73
2022/05/15 00:33:33;;;;;;;18.50;5.65;;;8.20;99.90;;;;;;5074838;28;20056;-72
2022/05/15 00:35:59;;;;;;;19.17;6.82;;;8.20;99.90;;;;;;5093081;28;20039;-73
2022/05/15 00:38:25;;;;;;;18.27;5.55;;;8.20;99.90;;;;;;5092924;28;20139;-74
2022/05/15 00:40:51;;;;;;;20.02;6.35;;;8.20;99.90;;;;;;5074805;28;20079;-73
2022/05/15 00:43:40;;;;;;;20.08;6.20;;;8.10;99.90;;;;;;5092919;28;20044;-74
2022/05/15 00:46:17;;;;;;;21.45;6.43;;;8.10;99.90;;;;;;5074704;28;20115;-73
2022/05/15 00:48:44;;;;;;;24.65;6.50;;;8.10;99.90;;;;;;5092407;28;20056;-73
2022/05/15 00:51:17;;;;;;;24.30;6.13;;;8.20;99.90;;;;;;5092806;28;20040;-70
2022/05/15 00:53:45;;;;;;;19.08;6.25;;;8.20;99.90;;;;;;5092807;28;20178;-71
2022/05/15 00:56:12;;;;;;;15.10;4.82;;;8.20;99.90;;;;;;5074326;28;20044;-73
2022/05/15 00:58:45;;;;;;;19.27;5.90;;;8.00;99.90;;;;;;5092582;28;20403;-74
2022/05/15 01:01:10;;;;;;;19.42;5.20;;;8.10;99.90;;;;;;5092015;28;20492;-72
2022/05/15 01:03:37;;;;;;;17.65;5.20;;;8.00;99.90;;;;;;5091940;28;20040;-72
2022/05/15 01:06:03;;;;;;;17.90;4.88;;;7.90;99.90;;;;;;5092386;28;20044;-72
2022/05/15 01:08:30;;;;;;;22.33;6.25;;;7.90;99.90;;;;;;5074132;28;20051;-70
2022/05/15 01:10:59;;;;;;;16.52;5.43;;;7.90;99.90;;;;;;5074240;28;20487;-73
2022/05/15 01:13:30;;;;;;;14.50;4.95;;;7.90;99.90;;;;;;5092372;28;20123;-72
2022/05/15 01:15:56;;;;;;;21.17;5.57;;;7.90;99.90;;;;;;5092096;28;20449;-73
2022/05/15 01:18:23;;;;;;;18.48;5.43;;;7.90;99.90;;;;;;5073693;28;20519;-71
2022/05/15 01:20:54;;;;;;;21.95;5.65;;;7.90;99.90;;;;;;5092343;28;20044;-72
2022/05/15 01:23:20;;;;;;;23.27;5.80;;;7.90;99.90;;;;;;5092261;28;20035;-72
2022/05/15 01:25:46;;;;;;;22.23;6.20;;;7.90;99.90;;;;;;5073853;28;20502;-74
2022/05/15 01:28:17;;;;;;;21.65;6.10;;;7.90;99.90;;;;;;5092022;28;20048;-73
2022/05/15 01:30:46;;;;;;;27.80;6.35;;;7.80;99.90;;;;;;5091986;28;20203;-69
2022/05/15 01:33:12;;;;;;;33.70;6.90;;;7.80;99.90;;;;;;5091404;28;20128;-73
2022/05/15 01:35:38;;;;;;;22.83;6.13;;;7.80;99.90;;;;;;5073849;28;20059;-72
2022/05/15 01:38:05;;;;;;;19.15;6.25;;;7.80;99.90;;;;;;5091771;28;20051;-70
2022/05/15 01:40:31;;;;;;;25.48;6.60;;;7.80;99.90;;;;;;5090876;28;20087;-72
2022/05/15 01:42:59;;;;;;;25.45;6.78;;;7.80;99.90;;;;;;5091572;28;20079;-68
2022/05/15 01:45:24;;;;;;;18.67;6.15;;;7.80;99.90;;;;;;5091738;28;20463;-70
2022/05/15 01:47:50;;;;;;;24.67;6.97;;;7.80;99.90;;;;;;5091365;28;20055;-73
2022/05/15 01:50:16;;;;;;;21.88;6.50;;;7.80;99.90;;;;;;5091172;28;20044;-72
2022/05/15 01:52:43;;;;;;;22.63;6.50;;;7.80;99.90;;;;;;5091503;28;20082;-72
2022/05/15 01:55:09;;;;;;;23.35;6.60;;;7.80;99.90;;;;;;5091412;28;20085;-73
2022/05/15 01:57:35;;;;;;;19.10;6.20;;;7.80;99.90;;;;;;5091250;28;20445;-73
2022/05/15 02:00:01;;;;;;;16.00;5.22;;;7.80;99.90;;;;;;5072918;28;20060;-71
2022/05/15 02:02:27;;;;;;;17.80;5.95;;;7.70;99.90;;;;;;5072942;28;20047;-73
2022/05/15 02:04:52;;;;;;;18.83;6.18;;;7.60;99.90;;;;;;5091319;28;20056;-72
2022/05/15 02:07:18;;;;;;;14.82;6.50;;;7.40;99.90;;;;;;5091185;28;20048;-70
2022/05/15 02:09:44;;;;;;;11.90;4.82;;;7.30;99.90;;;;;;5091139;28;20089;-70
2022/05/15 02:12:10;;;;;;;13.15;5.30;;;7.20;99.90;;;;;;5091012;28;20036;-69
2022/05/15 02:14:36;;;;;;;15.75;4.63;;;7.20;99.90;;;;;;5091151;28;20051;-69
2022/05/15 02:17:02;;;;;;;13.48;4.40;;;7.10;99.90;;;;;;5090902;28;20399;-72
2022/05/15 02:19:27;;;;;;;12.27;4.80;;;7.20;99.90;;;;;;5072569;28;20075;-70
2022/05/15 02:21:53;;;;;;;12.50;4.82;;;7.10;99.90;;;;;;5090933;28;20040;-72
2022/05/15 02:24:19;;;;;;;12.23;4.65;;;7.10;99.90;;;;;;5072695;28;20048;-73
2022/05/15 02:26:45;;;;;;;16.08;5.28;;;7.00;99.90;;;;;;5072322;28;20399;-72
2022/05/15 02:29:11;;;;;;;7.82;3.40;;;7.00;99.90;;;;;;5090819;28;20193;-73
2022/05/15 02:31:37;;;;;;;6.03;2.47;;;7.00;99.90;;;;;;5090826;28;20495;-71
2022/05/15 02:34:03;;;;;;;6.07;1.70;;;6.90;99.90;;;;;;5072376;28;20046;-73
2022/05/15 02:36:29;;;;;;;7.38;2.65;;;6.80;99.90;;;;;;5090545;28;20052;-72
2022/05/15 02:38:55;;;;;;;10.93;3.80;;;6.70;99.90;;;;;;5091046;28;20036;-73
2022/05/15 02:41:21;;;;;;;13.20;4.70;;;6.80;99.90;;;;;;5072910;28;20052;-71
2022/05/15 02:43:47;;;;;;;8.23;3.28;;;6.70;99.90;;;;;;5090749;28;20039;-72
2022/05/15 02:46:13;;;;;;;5.80;2.63;;;6.70;99.90;;;;;;5072163;28;20139;-72
2022/05/15 02:51:23;;;;;;;4.22;2.10;;;6.60;99.90;;;;;;5072224;28;20056;-70
2022/05/15 02:53:48;;;;;;;4.72;2.10;;;7.20;99.90;;;;;;5071812;28;20102;-70
2022/05/15 02:56:22;;;;;;;5.93;1.98;;;6.60;99.90;;;;;;5072298;28;20044;-73
2022/05/15 02:58:48;;;;;;;8.55;3.17;;;6.50;99.90;;;;;;5072452;28;20044;-72
2022/05/15 03:01:14;;;;;;;18.40;4.15;;;6.60;99.90;;;;;;5090210;28;20086;-71
2022/05/15 03:03:41;;;;;;;19.35;5.35;;;6.60;99.90;;;;;;5090267;28;20098;-73
2022/05/15 03:06:07;;;;;;;16.10;5.60;;;6.60;99.90;;;;;;5072045;28;20437;-73
2022/05/15 03:08:34;;;;;;;19.63;5.50;;;6.70;99.90;;;;;;5090021;28;20040;-73
2022/05/15 03:11:00;;;;;;;16.13;5.13;;;6.60;99.90;;;;;;5090275;28;20118;-73
2022/05/15 03:13:26;;;;;;;13.35;5.28;;;6.60;99.90;;;;;;5090337;28;20116;-74
2022/05/15 03:15:52;;;;;;;11.23;5.25;;;6.70;99.90;;;;;;5090134;28;20468;-73
2022/05/15 03:18:18;;;;;;;17.27;5.45;;;6.60;99.90;;;;;;5090540;28;20040;-73
2022/05/15 03:20:44;;;;;;;14.15;5.07;;;6.70;99.90;;;;;;5090240;28;20046;-72
2022/05/15 03:23:10;;;;;;;18.23;6.13;;;6.70;99.90;;;;;;5090008;28;20048;-70
2022/05/15 03:25:37;;;;;;;20.58;5.78;;;6.70;99.90;;;;;;5090244;28;20036;-73
2022/05/15 03:28:09;;;;;;;17.65;5.90;;;6.70;99.90;;;;;;5071829;28;20055;-71
2022/05/15 03:30:44;;;;;;;16.40;4.95;;;6.70;99.90;;;;;;5090108;28;20121;-74
2022/05/15 03:33:10;;;;;;;;;;;6.60;99.90;;;;;;5072348;28;20088;-72
2022/05/15 03:35:37;;;;;;;16.38;5.72;;;6.60;99.90;;;;;;5071883;28;19927;-71
2022/05/15 03:38:03;;;;;;;17.25;4.88;;;6.60;99.90;;;;;;5071675;28;20501;-73
2022/05/15 03:40:28;;;;;;;11.45;4.10;;;6.60;99.90;;;;;;5090002;28;20048;-70
2022/05/15 03:42:54;;;;;;;10.68;3.72;;;6.60;99.90;;;;;;5090229;28;20040;-74
2022/05/15 03:45:20;;;;;;;5.93;2.03;;;6.50;99.90;;;;;;5071836;28;20131;-71
2022/05/15 03:47:47;;;;;;;5.70;1.98;;;6.50;99.90;;;;;;5090172;28;20063;-73
2022/05/15 03:50:13;;;;;;;5.35;1.20;;;6.50;99.90;;;;;;5090150;28;20051;-73
2022/05/15 03:52:39;;;;;;;3.53;1.30;;;6.50;99.90;;;;;;5089607;28;20359;-74
2022/05/15 03:55:05;;;;;;;3.97;1.35;;;6.60;99.90;;;;;;5090126;28;20097;-73
2022/05/15 03:57:31;;;;;;;5.68;2.08;;;6.50;99.90;;;;;;5089837;28;20484;-73
2022/05/15 03:59:57;;;;;;;7.47;2.45;;;6.50;99.90;;;;;;5089826;28;20059;-73
2022/05/15 04:02:23;;;;;;;7.53;2.28;;;6.50;99.90;;;;;;5089808;28;20051;-72
2022/05/15 04:04:48;;;;;;;11.88;3.10;;;6.40;99.90;;;;;;5092886;28;20119;-72
2022/05/15 04:07:14;;;;;;;10.40;3.60;;;6.70;99.90;;;;;;5093637;28;20646;-73
2022/05/15 04:09:43;;;;;;;11.75;3.50;;;6.40;99.90;;;;;;5093317;28;20482;-73
2022/05/15 04:12:10;;;;;;;7.35;2.95;;;7.20;99.90;;;;;;5093584;28;20392;-73
2022/05/15 04:14:36;;;;;;;6.45;2.85;;;6.40;99.90;;;;;;5093499;28;20039;-73
2022/05/15 04:17:02;;;;;;;9.27;2.83;;;6.40;99.90;;;;;;5093386;28;20062;-73
2022/05/15 04:19:28;;;;;;;13.77;3.55;;;6.50;99.90;;;;;;5093454;28;20040;-73
2022/05/15 04:21:53;;;;;;;13.55;3.75;;;6.50;99.90;;;;;;5075200;28;20094;-72
2022/05/15 04:24:19;;;;;;;11.68;4.07;;;6.50;99.90;;;;;;5074970;28;20044;-72
2022/05/15 04:26:49;;;;;;;12.63;4.38;;;6.50;99.90;;;;;;5075013;28;20050;-72
2022/05/15 04:29:16;;;;;;;17.48;5.07;;;6.60;99.90;;;;;;5093359;28;20040;-71
2022/05/15 04:31:41;;;;;;;11.88;4.07;;;6.60;99.90;;;;;;5093193;28;20048;-72
2022/05/15 04:34:07;;;;;;;11.30;4.50;;;6.60;99.90;;;;;;5074905;28;20047;-72
2022/05/15 04:36:34;;;;;;;13.40;4.43;;;6.90;99.90;;;;;;5075399;28;20052;-73
2022/05/15 04:39:01;;;;;;;5.35;2.75;;;6.70;99.90;;;;;;5093032;28;20119;-72
2022/05/15 04:41:27;;;;;;;22.58;5.50;;;6.90;99.90;;;;;;5093320;28;20055;-73
2022/05/15 04:43:53;;;;;;;29.15;6.88;;;6.80;99.90;;;;;;5074973;28;20059;-73
2022/05/15 04:46:19;;;;;;;28.38;6.68;;;6.90;99.90;;;;;;5092758;28;20060;-72
2022/05/15 04:48:45;;;;;;;29.40;8.23;;;7.10;99.90;;;;;;5093091;28;20066;-72
2022/05/15 04:51:10;;;;;;;32.10;8.20;;;7.30;99.90;;;;;;5092848;28;20138;-71
2022/05/15 04:53:36;;;;;;;30.08;8.32;;;7.40;99.90;;;;;;5092879;28;20044;-72
2022/05/15 04:56:02;;;;;;;35.33;9.60;;;7.50;99.90;;;;;;5092626;28;20140;-72
2022/05/15 04:58:28;;;;;;;33.63;8.57;;;7.70;99.90;;;;;;5074411;28;20056;-72
2022/05/15 05:00:54;;;;;;;28.52;8.20;;;7.80;99.90;;;;;;5074096;28;20056;-71
2022/05/15 05:03:20;;;;;;;33.22;9.27;;;8.00;99.90;;;;;;5092383;28;20052;-73
2022/05/15 05:05:46;;;;;;;38.20;9.05;;;8.10;99.90;;;;;;5092583;28;20072;-72
2022/05/15 05:08:12;;;;;;;33.30;8.63;;;8.30;99.90;;;;;;5092412;28;20180;-73
2022/05/15 05:10:39;;;;;;;46.45;9.27;;;8.40;99.90;;;;;;5092254;28;20108;-72
2022/05/15 05:13:05;;;;;;;43.80;9.73;;;8.50;99.90;;;;;;5092507;28;20048;-72
2022/05/15 05:15:31;;;;;;;32.83;9.27;;;8.70;99.90;;;;;;5090967;28;20043;-70
2022/05/15 05:17:57;;;;;;;32.00;8.82;;;8.80;99.90;;;;;;5092606;28;20028;-73
2022/05/15 05:20:23;;;;;;;41.10;9.88;;;9.10;99.90;;;;;;5092535;28;20052;-72
2022/05/15 05:22:49;;;;;;;43.63;9.38;;;9.10;99.90;;;;;;5092186;28;20043;-73
2022/05/15 05:25:16;;;;;;;49.08;10.07;;;9.20;99.90;;;;;;5091902;28;20441;-73
2022/05/15 05:27:43;;;;;;;32.90;8.43;;;9.30;99.90;;;;;;5073571;28;20047;-73
2022/05/15 05:30:14;;;;;;;35.85;9.32;;;9.40;99.90;;;;;;5091827;28;20040;-70
2022/05/15 05:32:41;;;;;;;32.30;8.38;;;9.60;99.90;;;;;;5091765;28;20040;-73
2022/05/15 05:35:07;;;;;;;34.03;8.65;;;9.70;99.90;;;;;;5091861;28;20079;-73
2022/05/15 05:37:33;;;;;;;36.47;9.48;;;9.80;99.90;;;;;;5073756;28;20060;-73
2022/05/15 05:39:59;;;;;;;29.52;8.07;;;10.00;99.90;;;;;;5091981;28;20545;-73
2022/05/15 05:42:25;;;;;;;41.92;8.85;;;10.00;99.90;;;;;;5091287;28;20040;-74
2022/05/15 05:44:50;;;;;;;29.55;8.35;;;10.20;99.90;;;;;;5073615;28;20052;-73
2022/05/15 05:47:24;;;;;;;32.40;8.60;;;10.30;99.90;;;;;;5091382;28;20119;-69
2022/05/15 05:49:49;;;;;;;32.75;7.82;;;10.50;99.90;;;;;;5091451;28;20578;-70
2022/05/15 05:52:15;;;;;;;33.10;8.35;;;10.60;99.90;;;;;;5091357;28;20123;-69
2022/05/15 05:54:41;;;;;;;34.03;8.77;;;10.80;99.90;;;;;;5091348;28;20119;-69
2022/05/15 05:57:07;;;;;;;28.63;9.15;;;10.80;99.90;;;;;;5091054;28;20044;-69
2022/05/15 05:59:33;;;;;;;28.42;8.63;;;11.00;99.90;;;;;;5072994;28;20056;-70
2022/05/15 06:01:58;;;;;;;27.75;7.75;;;11.00;99.90;;;;;;5091276;28;20127;-67
2022/05/15 06:04:40;;;;;;;29.67;7.50;;;11.20;99.90;;;;;;5073385;28;20083;-70
2022/05/15 06:07:07;;;;;;;31.92;8.45;;;11.30;99.90;;;;;;5091194;28;20059;-70
2022/05/15 06:09:33;;;;;;;26.00;7.13;;;11.40;99.90;;;;;;5090938;28;20449;-69
2022/05/15 06:11:59;;;;;;;34.03;8.02;;;11.50;99.90;;;;;;5090922;28;20048;-69
2022/05/15 06:14:25;;;;;;;28.05;7.63;;;11.70;99.90;;;;;;5072846;28;20121;-69
2022/05/15 06:16:50;;;;;;;29.38;8.73;;;11.70;99.90;;;;;;5072985;28;20475;-70
2022/05/15 06:19:16;;;;;;;39.17;8.18;;;11.90;99.90;;;;;;5091133;28;20127;-70
2022/05/15 06:21:42;;;;;;;35.03;8.00;;;12.00;99.90;;;;;;5072828;28;20050;-70
2022/05/15 06:24:07;;;;;;;30.45;8.15;;;12.10;99.90;;;;;;5090877;28;20102;-71
2022/05/15 06:26:33;;;;;;;34.67;9.10;;;12.20;99.90;;;;;;5090532;28;20436;-71
2022/05/15 06:28:58;;;;;;;35.58;7.53;;;12.40;99.90;;;;;;5072297;28;20048;-69
2022/05/15 06:31:24;;;;;;;28.95;7.68;;;12.50;99.90;;;;;;5090720;28;20131;-68
2022/05/15 06:33:50;;;;;;;24.25;7.25;;;12.70;99.90;;;;;;5090947;28;20043;-70
2022/05/15 06:36:15;;;;;;;34.38;7.55;;;12.60;99.90;;;;;;5090889;28;20101;-70
2022/05/15 06:38:42;;;;;;;25.00;7.00;;;12.90;99.90;;;;;;5090579;28;20434;-70
2022/05/15 06:41:09;;;;;;;28.23;6.78;;;12.90;99.90;;;;;;5090622;28;20048;-70
2022/05/15 06:43:36;;;;;;;29.73;6.78;;;13.10;99.90;;;;;;5090252;28;20044;-68
2022/05/15 06:46:02;;;;;;;27.10;6.47;;;13.30;99.90;;;;;;5090368;28;20052;-73
2022/05/15 06:48:27;;;;;;;30.90;6.28;;;13.40;99.90;;;;;;5090640;28;20036;-70
2022/05/15 06:50:53;;;;;;;26.27;6.53;;;13.60;99.90;;;;;;5072176;28;20097;-71
2022/05/15 06:53:19;;;;;;;23.67;5.75;;;13.80;99.90;;;;;;5090452;28;20040;-70
2022/05/15 06:58:29;;;;;;;22.98;6.13;;;14.30;99.90;;;;;;5090169;28;20048;-71
2022/05/15 07:00:55;;;;;;;25.30;5.93;;;14.50;99.90;;;;;;5090210;28;20175;-70
2022/05/15 07:03:21;;;;;;;23.83;5.70;;;14.80;99.90;;;;;;5090512;28;20122;-71
2022/05/15 07:05:47;;;;;;;26.23;5.22;;;14.90;99.90;;;;;;5072227;28;20083;-71
2022/05/15 07:08:15;;;;;;;21.90;4.95;;;15.10;99.90;;;;;;5090506;28;20051;-70
2022/05/15 07:10:41;;;;;;;24.75;5.22;;;15.20;99.90;;;;;;5090435;28;20044;-70
2022/05/15 07:13:07;;;;;;;21.90;5.95;;;15.40;99.90;;;;;;5090357;28;20131;-70
2022/05/15 07:15:33;;;;;;;20.75;5.07;;;15.50;99.90;;;;;;5072164;28;20132;-69
2022/05/15 07:17:58;;;;;;;17.98;4.57;;;15.70;99.90;;;;;;5090636;28;20047;-70
2022/05/15 07:20:24;;;;;;;25.88;5.70;;;15.80;99.90;;;;;;5090136;28;20098;-71
2022/05/15 07:22:50;;;;;;;25.90;6.57;;;15.90;99.90;;;;;;5072543;28;20046;-70
2022/05/15 07:25:15;;;;;;;22.85;5.65;;;16.00;99.90;;;;;;5090633;28;20048;-70
2022/05/15 07:27:41;;;;;;;19.33;4.70;;;16.10;99.90;;;;;;5090248;28;20119;-70
2022/05/15 07:30:07;;;;;;;18.92;5.75;;;16.20;99.90;;;;;;5054246;28;20059;-71
2022/05/15 07:32:33;;;;;;;21.77;5.28;;;16.40;99.90;;;;;;5071982;28;20578;-70
2022/05/15 07:34:59;;;;;;;25.85;5.10;;;16.50;99.90;;;;;;5090535;28;20123;-70
2022/05/15 07:37:25;;;;;;;15.60;4.57;;;16.60;99.90;;;;;;5090050;28;20449;-68
2022/05/15 07:39:51;;;;;;;20.67;5.43;;;16.80;99.90;;;;;;5075453;28;20044;-70
2022/05/15 07:42:16;;;;;;;24.02;5.30;;;17.10;99.90;;;;;;5094423;28;20105;-71
2022/05/15 07:44:42;;;;;;;18.52;4.43;;;17.30;99.90;;;;;;5093845;28;20040;-72
2022/05/15 07:47:08;;;;;;;18.90;4.95;;;17.40;99.90;;;;;;5093860;28;20132;-73
2022/05/15 07:49:35;;;;;;;18.40;4.22;;;17.40;99.90;;;;;;5093952;28;20101;-72
2022/05/15 07:52:01;;;;;;;21.52;3.95;;;17.70;99.90;;;;;;5094054;28;20043;-71
2022/05/15 07:54:27;;;;;;;20.90;4.63;;;17.90;99.90;;;;;;5093837;28;20403;-71
2022/05/15 07:56:52;;;;;;;21.80;4.55;;;18.00;99.90;;;;;;5093685;28;20501;-73
2022/05/15 07:59:18;;;;;;;15.30;4.50;;;18.20;99.90;;;;;;5075423;28;20128;-73
2022/05/15 08:01:44;;;;;;;18.75;4.25;;;18.30;99.90;;;;;;5093249;28;20189;-75
2022/05/15 08:04:10;;;;;;;22.15;5.10;;;18.70;99.90;;;;;;5093457;28;20098;-73
2022/05/15 08:09:20;;;;;;;18.83;4.47;;;18.80;99.90;;;;;;5093551;28;20051;-72
2022/05/15 08:11:46;;;;;;;17.80;4.18;;;19.00;99.90;;;;;;5075267;28;20147;-73
2022/05/15 08:14:12;;;;;;;17.40;3.55;;;19.20;99.90;;;;;;5074895;28;20044;-73
2022/05/15 08:16:38;;;;;;;14.75;3.80;;;19.30;99.90;;;;;;5093245;28;20495;-72
2022/05/15 08:24:37;;;;;;;19.67;4.65;;;19.80;99.90;;;;;;5093285;28;20052;-72
2022/05/15 08:27:04;;;;;;;18.00;4.22;;;19.80;99.90;;;;;;5093139;28;20083;-72
2022/05/15 08:29:30;;;;;;;14.23;4.03;;;20.00;99.90;;;;;;5092922;28;20056;-73
2022/05/15 08:31:55;;;;;;;22.92;4.22;;;20.20;99.90;;;;;;5092477;28;20048;-73
2022/05/15 08:34:21;;;;;;;20.70;4.13;;;20.20;99.90;;;;;;5093176;28;20055;-72
2022/05/15 08:36:47;;;;;;;11.93;3.60;;;20.20;99.90;;;;;;5092670;28;20048;-70
2022/05/15 08:39:14;;;;;;;20.35;3.95;;;20.30;99.90;;;;;;5092934;28;20044;-72
2022/05/15 08:41:49;;;;;;;15.98;4.32;;;20.50;99.90;;;;;;5092528;28;20044;-70
2022/05/15 08:44:19;;;;;;;17.13;3.80;;;20.30;99.90;;;;;;5092854;28;20368;-71
2022/05/15 08:46:54;;;;;;;16.38;4.07;;;20.50;99.90;;;;;;5092587;28;20048;-69
2022/05/15 08:49:41;;;;;;;19.58;4.35;;;20.60;99.90;;;;;;5092325;28;20044;-70
2022/05/15 08:52:34;;;;;;;17.20;4.95;;;20.50;99.90;;;;;;5092384;28;20498;-70
2022/05/15 08:55:17;;;;;;;19.63;5.30;;;20.70;99.90;;;;;;5092727;28;20044;-70
2022/05/15 08:57:53;;;;;;;15.95;3.53;;;20.80;99.90;;;;;;5092491;28;20035;-70
2022/05/15 09:00:23;;;;;;;18.92;4.22;;;20.90;99.90;;;;;;5092278;28;20129;-69
2022/05/15 09:02:49;;;;;;;17.48;3.78;;;21.10;99.90;;;;;;5091951;28;20121;-70
2022/05/15 09:05:15;;;;;;;24.20;4.65;;;21.00;99.90;;;;;;5092594;28;20483;-70
2022/05/15 09:07:47;;;;;;;15.18;4.03;;;21.20;99.90;;;;;;5074045;28;20055;-71
2022/05/15 09:10:15;;;;;;;20.73;4.72;;;21.10;99.90;;;;;;5092341;28;20056;-70
2022/05/15 09:12:43;;;;;;;21.73;4.40;;;21.40;99.90;;;;;;5092128;28;20040;-70
2022/05/15 09:15:16;;;;;;;19.13;4.78;;;21.50;99.90;;;;;;5092005;28;20048;-70
2022/05/15 09:17:46;;;;;;;18.00;4.63;;;21.50;99.90;;;;;;5091841;28;20101;-71
2022/05/15 09:20:28;;;;;;;14.75;3.30;;;21.60;98.40;;;;;;5092185;28;20052;-72
2022/05/15 09:23:19;;;;;;;27.05;4.25;;;21.80;99.50;;;;;;5092186;28;20048;-72
2022/05/15 09:25:59;;;;;;;17.13;4.57;;;22.00;99.10;;;;;;5091763;28;20044;-70
2022/05/15 09:28:27;;;;;;;14.27;3.78;;;22.00;99.20;;;;;;5073646;28;20067;-70
2022/05/15 09:30:56;;;;;;;18.50;4.68;;;22.10;98.70;;;;;;5092078;28;20518;-67
2022/05/15 09:33:44;;;;;;;17.55;3.80;;;22.20;98.90;;;;;;5073749;28;20101;-68
2022/05/15 09:36:22;;;;;;;19.55;4.38;;;22.30;98.60;;;;;;5091531;28;20055;-69
2022/05/15 09:38:49;;;;;;;21.52;4.45;;;22.40;98.10;;;;;;5057132;28;20047;-70
2022/05/15 09:44:35;;;;;;;19.48;4.18;;;22.70;98.40;;;;;;5073515;28;20050;-70
2022/05/15 09:47:19;;;;;;;;;;;22.80;97.40;;;;;;5092338;28;20083;-70
2022/05/15 09:49:45;;;;;;;15.25;4.60;;;22.90;96.60;;;;;;5091273;28;19934;-70
2022/05/15 09:52:35;;;;;;;15.48;4.47;;;23.00;97.50;;;;;;5091696;28;20383;-71
2022/05/15 09:55:20;;;;;;;19.35;4.00;;;23.00;96.10;;;;;;5073216;28;20076;-70
2022/05/15 09:57:58;;;;;;;18.00;4.50;;;23.10;95.80;;;;;;5091630;28;20059;-71
2022/05/15 10:00:30;;;;;;;15.98;4.43;;;23.00;97.20;;;;;;5091194;28;20396;-70
2022/05/15 10:03:03;;;;;;;16.95;4.43;;;23.20;96.10;;;;;;5091013;28;20044;-69
2022/05/15 10:05:32;;;;;;;20.58;3.88;;;23.30;96.00;;;;;;5090959;28;20040;-69
2022/05/15 10:07:58;;;;;;;17.73;4.78;;;23.20;95.90;;;;;;5091355;28;20052;-70
2022/05/15 10:10:35;;;;;;;17.50;4.18;;;23.50;95.50;;;;;;5072686;28;20403;-70
2022/05/15 10:13:05;;;;;;;19.42;4.03;;;23.30;94.60;;;;;;5074506;28;20084;-69
2022/05/15 10:15:38;;;;;;;18.05;4.13;;;23.50;94.30;;;;;;5091238;28;20044;-69
2022/05/15 10:18:04;;;;;;;21.93;4.20;;;23.60;94.70;;;;;;5091147;28;20082;-70
2022/05/15 10:20:35;;;;;;;17.50;5.10;;;23.60;94.30;;;;;;5090650;28;20050;-71
2022/05/15 10:23:13;;;;;;;16.48;4.57;;;23.80;95.40;;;;;;5090827;28;20054;-70
2022/05/15 10:25:48;;;;;;;22.40;3.85;;;23.90;92.60;;;;;;5056554;28;20048;-69
2022/05/15 10:28:33;;;;;;;19.65;4.75;;;23.80;92.50;;;;;;5072600;28;20050;-71
2022/05/15 10:31:04;;;;;;;19.83;3.78;;;23.80;93.00;;;;;;5090613;28;20055;-70
2022/05/15 10:33:36;;;;;;;23.00;4.70;;;24.00;93.90;;;;;;5090908;28;20182;-73
2022/05/15 10:36:28;;;;;;;20.00;4.13;;;23.90;91.40;;;;;;5090726;28;20051;-72
2022/05/15 10:39:16;;;;;;;18.55;4.25;;;23.90;91.90;;;;;;5090540;28;20351;-71
2022/05/15 10:41:56;;;;;;;22.08;4.35;;;24.00;91.40;;;;;;5090563;28;20507;-71
2022/05/15 10:44:34;;;;;;;15.85;3.75;;;24.10;92.40;;;;;;5090612;28;20063;-74
2022/05/15 10:47:20;;;;;;;14.43;3.45;;;24.30;91.80;;;;;;5090560;28;20397;-73
2022/05/15 10:50:18;;;;;;;19.85;4.07;;;24.30;91.50;;;;;;5072177;28;20109;-71
2022/05/15 10:57:21;;;;;;;14.10;3.42;;;24.30;91.10;;;;;;5090471;28;20055;-71
2022/05/15 10:59:26;;;;;;;18.30;4.13;;;24.20;90.10;;;;;;4988547;28;20454;-72
2022/05/15 11:02:16;;;;;;;15.90;4.15;;;24.30;88.60;;;;;;4988250;28;20066;-71
2022/05/15 11:04:42;;;;;;;18.10;4.22;;;24.30;91.00;;;;;;4988140;28;20159;-70
2022/05/15 11:07:30;;;;;;;17.52;4.55;;;24.60;90.40;;;;;;4988133;28;20151;-71
2022/05/15 11:10:10;;;;;;;16.17;4.32;;;24.50;89.70;;;;;;4914481;29;20727;-71
2022/05/15 11:12:48;;;;;;;13.25;3.88;;;24.50;87.10;;;;;;4931794;29;20056;-72
2022/05/15 11:15:41;;;;;;;15.15;3.67;;;24.60;89.10;;;;;;4934475;29;20055;-71
2022/05/15 11:18:54;;;;;;;15.75;3.78;;;24.50;87.50;;;;;;4918560;29;20055;-71
2022/05/15 11:21:30;;;;;;;13.73;3.38;;;24.50;87.40;;;;;;4877431;29;20053;-74
2022/05/15 11:24:07;;;;;;;15.48;4.00;;;24.60;87.80;;;;;;4862142;29;20091;-73
2022/05/15 11:26:48;;;;;;;14.23;3.45;;;24.90;88.10;;;;;;4878042;29;20064;-73
2022/05/15 11:29:18;;;;;;;16.67;3.38;;;25.00;83.90;;;;;;4862625;29;20069;-70
2022/05/15 11:31:51;;;;;;;17.17;4.72;;;25.00;83.90;;;;;;4862388;29;20060;-73
2022/05/15 11:34:16;;;;;;;15.73;3.95;;;25.00;83.40;;;;;;4877716;29;20162;-72
2022/05/15 11:36:45;;;;;;;20.23;3.80;;;25.00;85.80;;;;;;4942177;29;20471;-71
2022/05/15 11:39:13;;;;;;;17.77;3.83;;;25.20;87.20;;;;;;4953279;29;20094;-70
2022/05/15 11:41:41;;;;;;;14.35;3.72;;;25.20;85.40;;;;;;4953226;29;20464;-71
2022/05/15 11:44:10;;;;;;;15.82;3.40;;;25.20;82.70;;;;;;4953039;29;20574;-71
2022/05/15 11:46:45;;;;;;;19.50;4.50;;;25.40;83.50;;;;;;4973829;28;20080;-71
2022/05/15 11:49:21;;;;;;;15.68;3.60;;;25.50;83.40;;;;;;4994746;28;20053;-70
2022/05/15 11:52:14;;;;;;;18.25;4.03;;;25.40;84.30;;;;;;5011368;28;20050;-71
2022/05/15 11:54:42;;;;;;;13.77;3.67;;;25.00;80.30;;;;;;4994755;28;20088;-72
2022/05/15 11:57:34;;;;;;;17.30;3.78;;;25.10;82.10;;;;;;5041765;28;20051;-72
2022/05/15 12:00:03;;;;;;;14.35;3.90;;;25.20;79.00;;;;;;5065946;28;20048;-72
2022/05/15 12:02:29;;;;;;;16.58;3.63;;;25.30;80.10;;;;;;5093366;28;20625;-72
2022/05/15 12:05:25;;;;;;;16.40;3.28;;;25.40;80.40;;;;;;5093565;28;20044;-71
2022/05/15 12:08:07;;;;;;;15.98;3.70;;;25.40;79.50;;;;;;5093259;28;20040;-71
2022/05/15 12:10:35;;;;;;;12.20;3.08;;;25.60;79.40;;;;;;5075434;28;20048;-71
2022/05/15 12:13:04;;;;;;;15.43;3.55;;;25.60;80.70;;;;;;5093590;28;20090;-72
2022/05/15 12:15:47;;;;;;;12.68;4.20;;;25.40;78.30;;;;;;5075345;28;20574;-72
2022/05/15 12:18:29;;;;;;;18.10;3.95;;;25.60;79.00;;;;;;5093557;28;20044;-71
2022/05/15 12:20:56;;;;;;;12.45;3.10;;;25.60;79.10;;;;;;5075436;28;20059;-71
2022/05/15 12:23:38;;;;;;;17.48;3.47;;;25.70;77.50;;;;;;5092949;28;20105;-71
2022/05/15 12:26:12;;;;;;;12.75;3.22;;;25.70;76.50;;;;;;5092921;28;20048;-72
2022/05/15 12:28:57;;;;;;;15.15;3.28;;;25.70;74.50;;;;;;5093095;28;20070;-72
2022/05/15 12:31:36;;;;;;;15.45;3.25;;;25.90;75.60;;;;;;5074962;28;20044;-70
2022/05/15 12:34:13;;;;;;;15.65;4.10;;;26.10;77.30;;;;;;5092839;28;20105;-70
2022/05/15 12:36:41;;;;;;;15.23;3.55;;;25.90;73.60;;;;;;5092889;28;20082;-71
2022/05/15 12:39:14;;;;;;;12.73;3.33;;;26.00;76.80;;;;;;5074682;28;20536;-72
2022/05/15 12:41:44;;;;;;;14.07;3.25;;;26.00;76.80;;;;;;5093066;28;20040;-70
2022/05/15 12:44:11;;;;;;;13.40;3.47;;;25.90;73.90;;;;;;5074576;28;20100;-70
2022/05/15 12:47:00;;;;;;;16.35;3.53;;;26.20;75.60;;;;;;5075051;28;20087;-71
2022/05/15 12:49:42;;;;;;;15.93;3.33;;;26.20;72.00;;;;;;5092511;28;20052;-71
2022/05/15 12:52:29;;;;;;;10.60;2.80;;;26.20;74.10;;;;;;5092904;28;20072;-72
2022/05/15 12:54:59;;;;;;;17.35;3.60;;;26.40;73.60;;;;;;5074222;28;20109;-70
2022/05/15 12:57:25;;;;;;;19.45;2.97;;;26.40;72.50;;;;;;5092272;28;20106;-70
2022/05/15 12:59:53;;;;;;;12.93;3.28;;;26.50;72.40;;;;;;5056981;28;20547;-72
2022/05/15 13:02:37;;;;;;;12.05;3.53;;;26.50;72.70;;;;;;5092498;28;20048;-70
2022/05/15 13:05:08;;;;;;;14.98;3.13;;;26.40;72.80;;;;;;5092570;28;20048;-71
2022/05/15 13:07:39;;;;;;;12.93;3.17;;;26.60;72.60;;;;;;5074518;28;20373;-70
2022/05/15 13:10:11;;;;;;;11.43;2.90;;;26.60;70.30;;;;;;5074434;28;20052;-72
2022/05/15 13:12:50;;;;;;;12.52;2.60;;;26.50;70.60;;;;;;5074387;28;20395;-70
2022/05/15 13:15:20;;;;;;;11.75;2.85;;;26.70;69.30;;;;;;5092546;28;20040;-72
2022/05/15 13:17:46;;;;;;;11.15;2.42;;;26.80;70.20;;;;;;5092344;28;20044;-70